sensor_id;sensor_type;location;lat;lon;timestamp;P1;durP1;ratioP1;P2;durP2;ratioP2
41711;SDS011;27399;51.516;13.670;2022-12-18T00:00:20;55.42;;;22.15;;
41711;SDS011;27399;51.516;13.670;2022-12-18T00:02:46;51.90;;;18.02;;
41711;SDS011;27399;51.516;13.670;2022-12-18T00:05:11;60.40;;;18.77;;
41711;SDS011;27399;51.516;13.670;2022-12-18T00:07:37;56.22;;;19.02;;
41711;SDS011;27399;51.516;13.670;2022-12-18T00:10:03;52.60;;;18.33;;
41711;SDS011;27399;51.516;13.670;2022-12-18T00:12:29;52.70;;;19.17;;
41711;SDS011;27399;51.516;13.670;2022-12-18T00:14:55;55.80;;;19.73;;
41711;SDS011;27399;51.516;13.670;2022-12-18T00:17:21;48.35;;;18.88;;
41711;SDS011;27399;51.516;13.670;2022-12-18T00:19:46;57.17;;;19.15;;
41711;SDS011;27399;51.516;13.670;2022-12-18T00:22:12;54.22;;;19.17;;
41711;SDS011;27399;51.516;13.670;2022-12-18T00:24:38;46.08;;;17.52;;
41711;SDS011;27399;51.516;13.670;2022-12-18T00:27:03;54.92;;;17.70;;
41711;SDS011;27399;51.516;13.670;2022-12-18T00:29:29;49.90;;;18.02;;
41711;SDS011;27399;51.516;13.670;2022-12-18T00:31:55;55.45;;;20.08;;
41711;SDS011;27399;51.516;13.670;2022-12-18T00:34:20;49.80;;;17.60;;
41711;SDS011;27399;51.516;13.670;2022-12-18T00:36:47;38.63;;;15.05;;
41711;SDS011;27399;51.516;13.670;2022-12-18T00:39:13;41.80;;;15.57;;
41711;SDS011;27399;51.516;13.670;2022-12-18T00:41:38;41.80;;;15.70;;
41711;SDS011;27399;51.516;13.670;2022-12-18T00:44:22;45.28;;;16.23;;
41711;SDS011;27399;51.516;13.670;2022-12-18T00:46:48;53.58;;;17.15;;
41711;SDS011;27399;51.516;13.670;2022-12-18T00:49:15;49.65;;;18.77;;
41711;SDS011;27399;51.516;13.670;2022-12-18T00:51:42;49.58;;;17.60;;
41711;SDS011;27399;51.516;13.670;2022-12-18T00:54:09;50.47;;;19.40;;
41711;SDS011;27399;51.516;13.670;2022-12-18T00:56:36;55.40;;;20.30;;
41711;SDS011;27399;51.516;13.670;2022-12-18T00:59:03;50.30;;;16.65;;
41711;SDS011;27399;51.516;13.670;2022-12-18T01:01:29;54.45;;;19.60;;
41711;SDS011;27399;51.516;13.670;2022-12-18T01:03:54;51.75;;;17.15;;
41711;SDS011;27399;51.516;13.670;2022-12-18T01:06:20;50.95;;;18.33;;
41711;SDS011;27399;51.516;13.670;2022-12-18T01:08:46;56.58;;;19.08;;
41711;SDS011;27399;51.516;13.670;2022-12-18T01:11:13;55.75;;;20.45;;
41711;SDS011;27399;51.516;13.670;2022-12-18T01:16:07;53.55;;;20.90;;
41711;SDS011;27399;51.516;13.670;2022-12-18T01:18:35;48.25;;;18.25;;
41711;SDS011;27399;51.516;13.670;2022-12-18T01:21:05;43.38;;;17.58;;
41711;SDS011;27399;51.516;13.670;2022-12-18T01:23:34;48.55;;;17.52;;
41711;SDS011;27399;51.516;13.670;2022-12-18T01:26:33;52.25;;;17.98;;
41711;SDS011;27399;51.516;13.670;2022-12-18T01:28:55;50.05;;;17.80;;
41711;SDS011;27399;51.516;13.670;2022-12-18T01:31:28;60.13;;;20.02;;
41711;SDS011;27399;51.516;13.670;2022-12-18T01:33:56;58.30;;;20.33;;
41711;SDS011;27399;51.516;13.670;2022-12-18T01:36:23;45.05;;;16.33;;
41711;SDS011;27399;51.516;13.670;2022-12-18T01:38:51;46.22;;;16.27;;
41711;SDS011;27399;51.516;13.670;2022-12-18T01:41:18;39.03;;;15.55;;
41711;SDS011;27399;51.516;13.670;2022-12-18T01:43:47;45.72;;;17.02;;
41711;SDS011;27399;51.516;13.670;2022-12-18T01:46:16;43.95;;;16.95;;
41711;SDS011;27399;51.516;13.670;2022-12-18T01:48:45;53.22;;;17.10;;
41711;SDS011;27399;51.516;13.670;2022-12-18T01:51:13;55.40;;;17.15;;
41711;SDS011;27399;51.516;13.670;2022-12-18T01:53:40;42.75;;;16.45;;
41711;SDS011;27399;51.516;13.670;2022-12-18T01:56:07;51.38;;;16.60;;
41711;SDS011;27399;51.516;13.670;2022-12-18T02:01:14;49.30;;;17.10;;
41711;SDS011;27399;51.516;13.670;2022-12-18T02:03:43;57.03;;;17.15;;
41711;SDS011;27399;51.516;13.670;2022-12-18T02:06:14;51.55;;;17.45;;
41711;SDS011;27399;51.516;13.670;2022-12-18T02:08:57;47.75;;;15.57;;
41711;SDS011;27399;51.516;13.670;2022-12-18T02:11:48;47.17;;;16.75;;
41711;SDS011;27399;51.516;13.670;2022-12-18T02:14:28;49.55;;;16.80;;
41711;SDS011;27399;51.516;13.670;2022-12-18T02:17:04;46.30;;;17.98;;
41711;SDS011;27399;51.516;13.670;2022-12-18T02:22:14;49.47;;;16.98;;
41711;SDS011;27399;51.516;13.670;2022-12-18T02:28:05;54.55;;;15.68;;
41711;SDS011;27399;51.516;13.670;2022-12-18T02:30:35;54.40;;;18.70;;
41711;SDS011;27399;51.516;13.670;2022-12-18T02:33:03;53.60;;;16.60;;
41711;SDS011;27399;51.516;13.670;2022-12-18T02:35:32;50.58;;;17.90;;
41711;SDS011;27399;51.516;13.670;2022-12-18T02:37:59;52.97;;;17.98;;
41711;SDS011;27399;51.516;13.670;2022-12-18T02:40:26;45.70;;;17.30;;
41711;SDS011;27399;51.516;13.670;2022-12-18T02:42:53;56.22;;;17.58;;
41711;SDS011;27399;51.516;13.670;2022-12-18T02:45:19;50.70;;;17.23;;
41711;SDS011;27399;51.516;13.670;2022-12-18T02:47:46;54.03;;;16.30;;
41711;SDS011;27399;51.516;13.670;2022-12-18T02:50:22;44.53;;;16.13;;
41711;SDS011;27399;51.516;13.670;2022-12-18T02:55:56;42.63;;;15.70;;
41711;SDS011;27399;51.516;13.670;2022-12-18T03:01:03;41.40;;;16.17;;
41711;SDS011;27399;51.516;13.670;2022-12-18T03:03:55;55.05;;;17.10;;
41711;SDS011;27399;51.516;13.670;2022-12-18T03:06:47;55.28;;;15.75;;
41711;SDS011;27399;51.516;13.670;2022-12-18T03:09:17;50.97;;;17.13;;
41711;SDS011;27399;51.516;13.670;2022-12-18T03:11:48;47.05;;;16.55;;
41711;SDS011;27399;51.516;13.670;2022-12-18T03:14:38;52.95;;;17.65;;
41711;SDS011;27399;51.516;13.670;2022-12-18T03:17:11;55.47;;;18.17;;
41711;SDS011;27399;51.516;13.670;2022-12-18T03:19:41;51.47;;;17.00;;
41711;SDS011;27399;51.516;13.670;2022-12-18T03:22:11;46.47;;;15.63;;
41711;SDS011;27399;51.516;13.670;2022-12-18T03:24:38;55.75;;;17.02;;
41711;SDS011;27399;51.516;13.670;2022-12-18T03:27:06;57.08;;;18.67;;
41711;SDS011;27399;51.516;13.670;2022-12-18T03:32:09;52.83;;;17.38;;
41711;SDS011;27399;51.516;13.670;2022-12-18T03:34:38;41.92;;;15.30;;
41711;SDS011;27399;51.516;13.670;2022-12-18T03:37:07;42.65;;;15.65;;
41711;SDS011;27399;51.516;13.670;2022-12-18T03:39:34;42.67;;;14.90;;
41711;SDS011;27399;51.516;13.670;2022-12-18T03:42:03;47.20;;;15.95;;
41711;SDS011;27399;51.516;13.670;2022-12-18T03:47:09;53.08;;;17.63;;
41711;SDS011;27399;51.516;13.670;2022-12-18T03:52:36;52.70;;;18.02;;
41711;SDS011;27399;51.516;13.670;2022-12-18T03:55:11;44.13;;;15.70;;
41711;SDS011;27399;51.516;13.670;2022-12-18T03:57:37;43.78;;;15.90;;
41711;SDS011;27399;51.516;13.670;2022-12-18T04:00:11;50.80;;;15.07;;
41711;SDS011;27399;51.516;13.670;2022-12-18T04:02:38;43.72;;;15.43;;
41711;SDS011;27399;51.516;13.670;2022-12-18T04:05:08;44.38;;;15.35;;
41711;SDS011;27399;51.516;13.670;2022-12-18T04:07:35;52.47;;;16.80;;
41711;SDS011;27399;51.516;13.670;2022-12-18T04:10:02;49.20;;;16.50;;
41711;SDS011;27399;51.516;13.670;2022-12-18T04:12:31;41.75;;;14.73;;
41711;SDS011;27399;51.516;13.670;2022-12-18T04:14:57;38.85;;;13.63;;
41711;SDS011;27399;51.516;13.670;2022-12-18T04:17:23;47.40;;;16.17;;
41711;SDS011;27399;51.516;13.670;2022-12-18T04:19:49;37.08;;;14.73;;
41711;SDS011;27399;51.516;13.670;2022-12-18T04:22:15;39.05;;;13.95;;
41711;SDS011;27399;51.516;13.670;2022-12-18T04:24:40;45.88;;;16.23;;
41711;SDS011;27399;51.516;13.670;2022-12-18T04:27:06;43.85;;;16.73;;
41711;SDS011;27399;51.516;13.670;2022-12-18T04:29:32;40.28;;;14.63;;
41711;SDS011;27399;51.516;13.670;2022-12-18T04:31:58;50.97;;;15.20;;
41711;SDS011;27399;51.516;13.670;2022-12-18T04:34:24;41.53;;;15.90;;
41711;SDS011;27399;51.516;13.670;2022-12-18T04:36:49;42.85;;;15.20;;
41711;SDS011;27399;51.516;13.670;2022-12-18T04:39:16;47.90;;;14.32;;
41711;SDS011;27399;51.516;13.670;2022-12-18T04:41:43;39.92;;;14.93;;
41711;SDS011;27399;51.516;13.670;2022-12-18T04:44:09;43.22;;;14.82;;
41711;SDS011;27399;51.516;13.670;2022-12-18T04:46:34;41.92;;;13.90;;
41711;SDS011;27399;51.516;13.670;2022-12-18T04:49:00;40.72;;;13.68;;
41711;SDS011;27399;51.516;13.670;2022-12-18T04:51:26;48.50;;;15.50;;
41711;SDS011;27399;51.516;13.670;2022-12-18T04:53:52;43.47;;;15.45;;
41711;SDS011;27399;51.516;13.670;2022-12-18T04:56:18;46.20;;;14.98;;
41711;SDS011;27399;51.516;13.670;2022-12-18T04:58:44;56.28;;;17.15;;
41711;SDS011;27399;51.516;13.670;2022-12-18T05:01:11;39.95;;;14.98;;
41711;SDS011;27399;51.516;13.670;2022-12-18T05:03:38;38.25;;;13.63;;
41711;SDS011;27399;51.516;13.670;2022-12-18T05:06:04;48.63;;;15.23;;
41711;SDS011;27399;51.516;13.670;2022-12-18T05:08:31;53.35;;;17.92;;
41711;SDS011;27399;51.516;13.670;2022-12-18T05:11:00;47.15;;;16.42;;
41711;SDS011;27399;51.516;13.670;2022-12-18T05:13:27;38.90;;;14.23;;
41711;SDS011;27399;51.516;13.670;2022-12-18T05:15:53;47.35;;;15.25;;
41711;SDS011;27399;51.516;13.670;2022-12-18T05:18:19;45.13;;;14.13;;
41711;SDS011;27399;51.516;13.670;2022-12-18T05:20:45;42.47;;;17.27;;
41711;SDS011;27399;51.516;13.670;2022-12-18T05:23:11;41.78;;;14.75;;
41711;SDS011;27399;51.516;13.670;2022-12-18T05:25:36;40.55;;;14.20;;
41711;SDS011;27399;51.516;13.670;2022-12-18T05:28:02;46.90;;;15.43;;
41711;SDS011;27399;51.516;13.670;2022-12-18T05:30:29;41.47;;;14.50;;
41711;SDS011;27399;51.516;13.670;2022-12-18T05:32:55;39.47;;;14.85;;
41711;SDS011;27399;51.516;13.670;2022-12-18T05:35:21;45.92;;;15.68;;
41711;SDS011;27399;51.516;13.670;2022-12-18T05:37:46;49.20;;;17.05;;
41711;SDS011;27399;51.516;13.670;2022-12-18T05:40:12;41.95;;;15.18;;
41711;SDS011;27399;51.516;13.670;2022-12-18T05:42:38;46.35;;;15.85;;
41711;SDS011;27399;51.516;13.670;2022-12-18T05:45:04;45.83;;;15.35;;
41711;SDS011;27399;51.516;13.670;2022-12-18T05:47:30;51.15;;;16.80;;
41711;SDS011;27399;51.516;13.670;2022-12-18T05:49:56;59.10;;;16.10;;
41711;SDS011;27399;51.516;13.670;2022-12-18T05:52:22;40.15;;;15.52;;
41711;SDS011;27399;51.516;13.670;2022-12-18T05:54:48;49.05;;;16.15;;
41711;SDS011;27399;51.516;13.670;2022-12-18T05:57:14;51.90;;;14.90;;
41711;SDS011;27399;51.516;13.670;2022-12-18T05:59:39;42.03;;;15.25;;
41711;SDS011;27399;51.516;13.670;2022-12-18T06:02:05;45.05;;;17.15;;
41711;SDS011;27399;51.516;13.670;2022-12-18T06:04:31;39.13;;;14.43;;
41711;SDS011;27399;51.516;13.670;2022-12-18T06:06:56;40.30;;;15.15;;
41711;SDS011;27399;51.516;13.670;2022-12-18T06:09:22;63.15;;;18.35;;
41711;SDS011;27399;51.516;13.670;2022-12-18T06:11:48;39.22;;;15.02;;
41711;SDS011;27399;51.516;13.670;2022-12-18T06:14:17;49.55;;;15.52;;
41711;SDS011;27399;51.516;13.670;2022-12-18T06:16:43;41.05;;;14.63;;
41711;SDS011;27399;51.516;13.670;2022-12-18T06:19:12;48.92;;;14.95;;
41711;SDS011;27399;51.516;13.670;2022-12-18T06:21:40;49.38;;;15.52;;
41711;SDS011;27399;51.516;13.670;2022-12-18T06:24:06;50.50;;;15.82;;
41711;SDS011;27399;51.516;13.670;2022-12-18T06:26:31;45.03;;;14.50;;
41711;SDS011;27399;51.516;13.670;2022-12-18T06:28:57;40.42;;;14.43;;
41711;SDS011;27399;51.516;13.670;2022-12-18T06:34:45;47.53;;;15.82;;
41711;SDS011;27399;51.516;13.670;2022-12-18T06:37:10;38.97;;;14.18;;
41711;SDS011;27399;51.516;13.670;2022-12-18T06:39:36;43.55;;;15.60;;
41711;SDS011;27399;51.516;13.670;2022-12-18T06:42:02;42.03;;;15.02;;
41711;SDS011;27399;51.516;13.670;2022-12-18T06:44:28;43.17;;;14.30;;
41711;SDS011;27399;51.516;13.670;2022-12-18T06:46:54;41.72;;;15.13;;
41711;SDS011;27399;51.516;13.670;2022-12-18T06:49:20;42.17;;;14.90;;
41711;SDS011;27399;51.516;13.670;2022-12-18T06:51:46;47.55;;;15.02;;
41711;SDS011;27399;51.516;13.670;2022-12-18T06:54:12;44.33;;;14.98;;
41711;SDS011;27399;51.516;13.670;2022-12-18T06:56:38;43.72;;;16.65;;
41711;SDS011;27399;51.516;13.670;2022-12-18T06:59:03;41.25;;;15.60;;
41711;SDS011;27399;51.516;13.670;2022-12-18T07:01:29;46.17;;;15.10;;
41711;SDS011;27399;51.516;13.670;2022-12-18T07:03:55;49.55;;;15.80;;
41711;SDS011;27399;51.516;13.670;2022-12-18T07:06:22;39.40;;;15.45;;
41711;SDS011;27399;51.516;13.670;2022-12-18T07:08:50;41.15;;;14.05;;
41711;SDS011;27399;51.516;13.670;2022-12-18T07:11:17;46.90;;;14.95;;
41711;SDS011;27399;51.516;13.670;2022-12-18T07:13:44;40.67;;;16.65;;
41711;SDS011;27399;51.516;13.670;2022-12-18T07:16:14;45.22;;;16.13;;
41711;SDS011;27399;51.516;13.670;2022-12-18T07:18:41;39.20;;;15.48;;
41711;SDS011;27399;51.516;13.670;2022-12-18T07:21:08;47.05;;;14.90;;
41711;SDS011;27399;51.516;13.670;2022-12-18T07:23:36;50.05;;;15.05;;
41711;SDS011;27399;51.516;13.670;2022-12-18T07:26:05;48.00;;;16.27;;
41711;SDS011;27399;51.516;13.670;2022-12-18T07:28:34;48.25;;;16.20;;
41711;SDS011;27399;51.516;13.670;2022-12-18T07:31:04;41.70;;;15.15;;
41711;SDS011;27399;51.516;13.670;2022-12-18T07:33:32;39.10;;;14.05;;
41711;SDS011;27399;51.516;13.670;2022-12-18T07:35:59;49.63;;;15.65;;
41711;SDS011;27399;51.516;13.670;2022-12-18T07:38:28;34.80;;;14.40;;
41711;SDS011;27399;51.516;13.670;2022-12-18T07:40:54;42.63;;;14.80;;
41711;SDS011;27399;51.516;13.670;2022-12-18T07:43:25;42.13;;;14.13;;
41711;SDS011;27399;51.516;13.670;2022-12-18T07:45:51;35.97;;;12.32;;
41711;SDS011;27399;51.516;13.670;2022-12-18T07:48:16;35.63;;;13.13;;
41711;SDS011;27399;51.516;13.670;2022-12-18T07:50:42;35.30;;;13.40;;
41711;SDS011;27399;51.516;13.670;2022-12-18T07:53:08;35.05;;;12.82;;
41711;SDS011;27399;51.516;13.670;2022-12-18T07:55:34;39.13;;;13.30;;
41711;SDS011;27399;51.516;13.670;2022-12-18T07:58:03;42.50;;;13.15;;
41711;SDS011;27399;51.516;13.670;2022-12-18T08:00:29;41.90;;;13.85;;
41711;SDS011;27399;51.516;13.670;2022-12-18T08:02:56;39.25;;;13.20;;
41711;SDS011;27399;51.516;13.670;2022-12-18T08:05:22;43.85;;;13.95;;
41711;SDS011;27399;51.516;13.670;2022-12-18T08:07:48;32.33;;;11.07;;
41711;SDS011;27399;51.516;13.670;2022-12-18T08:10:14;35.38;;;12.70;;
41711;SDS011;27399;51.516;13.670;2022-12-18T08:12:39;39.60;;;13.63;;
41711;SDS011;27399;51.516;13.670;2022-12-18T08:15:05;40.70;;;14.23;;
41711;SDS011;27399;51.516;13.670;2022-12-18T08:17:32;37.83;;;12.52;;
41711;SDS011;27399;51.516;13.670;2022-12-18T08:19:57;30.52;;;12.18;;
41711;SDS011;27399;51.516;13.670;2022-12-18T08:22:23;38.05;;;14.02;;
41711;SDS011;27399;51.516;13.670;2022-12-18T08:24:49;34.22;;;12.55;;
41711;SDS011;27399;51.516;13.670;2022-12-18T08:27:14;28.65;;;11.02;;
41711;SDS011;27399;51.516;13.670;2022-12-18T08:29:40;28.55;;;11.07;;
41711;SDS011;27399;51.516;13.670;2022-12-18T08:32:06;31.08;;;11.73;;
41711;SDS011;27399;51.516;13.670;2022-12-18T08:34:31;26.00;;;10.55;;
41711;SDS011;27399;51.516;13.670;2022-12-18T08:36:57;28.48;;;10.63;;
41711;SDS011;27399;51.516;13.670;2022-12-18T08:39:23;32.05;;;11.40;;
41711;SDS011;27399;51.516;13.670;2022-12-18T08:41:49;26.83;;;9.93;;
41711;SDS011;27399;51.516;13.670;2022-12-18T08:44:33;28.90;;;11.57;;
41711;SDS011;27399;51.516;13.670;2022-12-18T08:47:05;28.48;;;11.18;;
41711;SDS011;27399;51.516;13.670;2022-12-18T08:49:31;31.25;;;11.25;;
41711;SDS011;27399;51.516;13.670;2022-12-18T08:51:58;31.77;;;11.57;;
41711;SDS011;27399;51.516;13.670;2022-12-18T08:54:23;27.98;;;9.40;;
41711;SDS011;27399;51.516;13.670;2022-12-18T08:56:49;28.88;;;10.85;;
41711;SDS011;27399;51.516;13.670;2022-12-18T08:59:16;32.03;;;12.02;;
41711;SDS011;27399;51.516;13.670;2022-12-18T09:01:42;27.75;;;12.00;;
41711;SDS011;27399;51.516;13.670;2022-12-18T09:04:09;25.42;;;10.25;;
41711;SDS011;27399;51.516;13.670;2022-12-18T09:06:35;27.38;;;10.57;;
41711;SDS011;27399;51.516;13.670;2022-12-18T09:09:01;28.95;;;10.85;;
41711;SDS011;27399;51.516;13.670;2022-12-18T09:11:28;29.35;;;11.70;;
41711;SDS011;27399;51.516;13.670;2022-12-18T09:13:54;36.90;;;12.20;;
41711;SDS011;27399;51.516;13.670;2022-12-18T09:16:20;29.35;;;10.90;;
41711;SDS011;27399;51.516;13.670;2022-12-18T09:18:47;28.27;;;11.95;;
41711;SDS011;27399;51.516;13.670;2022-12-18T09:21:22;25.25;;;10.43;;
41711;SDS011;27399;51.516;13.670;2022-12-18T09:23:51;27.88;;;10.50;;
41711;SDS011;27399;51.516;13.670;2022-12-18T09:26:17;23.95;;;10.15;;
41711;SDS011;27399;51.516;13.670;2022-12-18T09:28:43;27.08;;;10.38;;
41711;SDS011;27399;51.516;13.670;2022-12-18T09:31:10;23.20;;;8.95;;
41711;SDS011;27399;51.516;13.670;2022-12-18T09:33:40;23.77;;;9.80;;
41711;SDS011;27399;51.516;13.670;2022-12-18T09:36:07;27.52;;;10.70;;
41711;SDS011;27399;51.516;13.670;2022-12-18T09:38:35;32.95;;;11.35;;
41711;SDS011;27399;51.516;13.670;2022-12-18T09:47:09;28.85;;;10.18;;
41711;SDS011;27399;51.516;13.670;2022-12-18T09:49:47;24.48;;;10.63;;
41711;SDS011;27399;51.516;13.670;2022-12-18T09:52:19;27.25;;;10.52;;
41711;SDS011;27399;51.516;13.670;2022-12-18T09:55:38;27.33;;;10.40;;
41711;SDS011;27399;51.516;13.670;2022-12-18T09:58:14;23.35;;;10.23;;
41711;SDS011;27399;51.516;13.670;2022-12-18T10:00:52;25.02;;;9.40;;
41711;SDS011;27399;51.516;13.670;2022-12-18T10:03:19;26.35;;;10.18;;
41711;SDS011;27399;51.516;13.670;2022-12-18T10:19:42;29.60;;;10.50;;
41711;SDS011;27399;51.516;13.670;2022-12-18T10:22:19;25.75;;;10.18;;
41711;SDS011;27399;51.516;13.670;2022-12-18T10:25:01;23.48;;;8.93;;
41711;SDS011;27399;51.516;13.670;2022-12-18T10:27:35;28.42;;;10.68;;
41711;SDS011;27399;51.516;13.670;2022-12-18T10:30:03;26.08;;;10.00;;
41711;SDS011;27399;51.516;13.670;2022-12-18T10:32:38;21.48;;;10.05;;
41711;SDS011;27399;51.516;13.670;2022-12-18T10:35:04;24.90;;;9.30;;
41711;SDS011;27399;51.516;13.670;2022-12-18T10:37:30;29.85;;;10.27;;
41711;SDS011;27399;51.516;13.670;2022-12-18T10:42:38;29.75;;;9.02;;
41711;SDS011;27399;51.516;13.670;2022-12-18T10:45:12;28.63;;;10.38;;
41711;SDS011;27399;51.516;13.670;2022-12-18T10:47:43;27.75;;;10.65;;
41711;SDS011;27399;51.516;13.670;2022-12-18T10:52:58;29.92;;;12.15;;
41711;SDS011;27399;51.516;13.670;2022-12-18T10:55:35;26.27;;;10.55;;
41711;SDS011;27399;51.516;13.670;2022-12-18T10:58:16;28.10;;;10.55;;
41711;SDS011;27399;51.516;13.670;2022-12-18T11:01:13;27.95;;;9.93;;
41711;SDS011;27399;51.516;13.670;2022-12-18T11:03:41;26.42;;;9.43;;
41711;SDS011;27399;51.516;13.670;2022-12-18T11:08:41;27.50;;;9.95;;
41711;SDS011;27399;51.516;13.670;2022-12-18T11:11:21;26.48;;;10.13;;
41711;SDS011;27399;51.516;13.670;2022-12-18T11:13:53;31.90;;;11.40;;
41711;SDS011;27399;51.516;13.670;2022-12-18T11:16:21;27.38;;;10.15;;
41711;SDS011;27399;51.516;13.670;2022-12-18T11:18:46;27.45;;;10.27;;
41711;SDS011;27399;51.516;13.670;2022-12-18T11:21:12;28.83;;;10.98;;
41711;SDS011;27399;51.516;13.670;2022-12-18T11:23:52;27.23;;;10.70;;
41711;SDS011;27399;51.516;13.670;2022-12-18T11:26:19;28.25;;;10.23;;
41711;SDS011;27399;51.516;13.670;2022-12-18T11:38:51;28.88;;;11.95;;
41711;SDS011;27399;51.516;13.670;2022-12-18T11:41:26;28.13;;;10.40;;
41711;SDS011;27399;51.516;13.670;2022-12-18T11:44:36;27.35;;;11.05;;
41711;SDS011;27399;51.516;13.670;2022-12-18T11:47:13;27.65;;;9.60;;
41711;SDS011;27399;51.516;13.670;2022-12-18T11:49:40;26.90;;;11.13;;
41711;SDS011;27399;51.516;13.670;2022-12-18T11:52:12;25.73;;;10.70;;
41711;SDS011;27399;51.516;13.670;2022-12-18T11:54:44;27.85;;;10.50;;
41711;SDS011;27399;51.516;13.670;2022-12-18T12:10:53;28.42;;;9.43;;
41711;SDS011;27399;51.516;13.670;2022-12-18T12:16:28;27.33;;;10.10;;
41711;SDS011;27399;51.516;13.670;2022-12-18T12:30:21;27.25;;;10.20;;
41711;SDS011;27399;51.516;13.670;2022-12-18T12:33:06;29.67;;;9.82;;
41711;SDS011;27399;51.516;13.670;2022-12-18T12:36:02;23.63;;;9.88;;
41711;SDS011;27399;51.516;13.670;2022-12-18T12:38:44;28.42;;;10.32;;
41711;SDS011;27399;51.516;13.670;2022-12-18T12:41:20;27.00;;;10.45;;
41711;SDS011;27399;51.516;13.670;2022-12-18T12:44:08;27.92;;;10.15;;
41711;SDS011;27399;51.516;13.670;2022-12-18T12:46:41;26.40;;;10.00;;
41711;SDS011;27399;51.516;13.670;2022-12-18T12:49:14;26.13;;;10.50;;
41711;SDS011;27399;51.516;13.670;2022-12-18T12:51:44;26.20;;;10.38;;
41711;SDS011;27399;51.516;13.670;2022-12-18T12:54:22;25.77;;;10.23;;
41711;SDS011;27399;51.516;13.670;2022-12-18T13:04:52;24.83;;;10.77;;
41711;SDS011;27399;51.516;13.670;2022-12-18T13:07:29;24.88;;;9.43;;
41711;SDS011;27399;51.516;13.670;2022-12-18T13:10:13;24.02;;;9.85;;
41711;SDS011;27399;51.516;13.670;2022-12-18T13:15:44;29.02;;;10.25;;
41711;SDS011;27399;51.516;13.670;2022-12-18T13:18:31;24.10;;;10.23;;
41711;SDS011;27399;51.516;13.670;2022-12-18T13:23:26;27.40;;;10.23;;
41711;SDS011;27399;51.516;13.670;2022-12-18T13:26:39;29.58;;;10.23;;
41711;SDS011;27399;51.516;13.670;2022-12-18T13:31:14;29.02;;;10.02;;
41711;SDS011;27399;51.516;13.670;2022-12-18T13:36:55;24.90;;;10.23;;
41711;SDS011;27399;51.516;13.670;2022-12-18T13:39:41;25.48;;;9.43;;
41711;SDS011;27399;51.516;13.670;2022-12-18T13:44:36;30.65;;;10.63;;
41711;SDS011;27399;51.516;13.670;2022-12-18T13:47:05;25.50;;;10.38;;
41711;SDS011;27399;51.516;13.670;2022-12-18T13:49:53;23.42;;;10.10;;
41711;SDS011;27399;51.516;13.670;2022-12-18T13:52:27;23.52;;;9.63;;
41711;SDS011;27399;51.516;13.670;2022-12-18T13:54:59;26.10;;;9.73;;
41711;SDS011;27399;51.516;13.670;2022-12-18T13:57:27;27.45;;;10.32;;
41711;SDS011;27399;51.516;13.670;2022-12-18T13:59:55;24.30;;;9.82;;
41711;SDS011;27399;51.516;13.670;2022-12-18T14:02:23;25.20;;;9.55;;
41711;SDS011;27399;51.516;13.670;2022-12-18T14:04:50;25.15;;;9.68;;
41711;SDS011;27399;51.516;13.670;2022-12-18T14:07:17;29.33;;;10.38;;
41711;SDS011;27399;51.516;13.670;2022-12-18T14:09:54;22.60;;;9.15;;
41711;SDS011;27399;51.516;13.670;2022-12-18T14:12:26;25.08;;;8.85;;
41711;SDS011;27399;51.516;13.670;2022-12-18T14:17:50;29.08;;;12.52;;
41711;SDS011;27399;51.516;13.670;2022-12-18T14:20:20;33.00;;;13.38;;
41711;SDS011;27399;51.516;13.670;2022-12-18T14:22:47;28.67;;;10.52;;
41711;SDS011;27399;51.516;13.670;2022-12-18T14:25:15;25.10;;;9.40;;
41711;SDS011;27399;51.516;13.670;2022-12-18T14:27:47;28.33;;;10.13;;
41711;SDS011;27399;51.516;13.670;2022-12-18T14:33:02;25.73;;;9.70;;
41711;SDS011;27399;51.516;13.670;2022-12-18T14:35:34;24.55;;;9.07;;
41711;SDS011;27399;51.516;13.670;2022-12-18T14:38:20;27.33;;;10.02;;
41711;SDS011;27399;51.516;13.670;2022-12-18T14:40:47;23.30;;;9.95;;
41711;SDS011;27399;51.516;13.670;2022-12-18T14:43:21;28.10;;;9.77;;
41711;SDS011;27399;51.516;13.670;2022-12-18T14:45:47;27.50;;;10.05;;
41711;SDS011;27399;51.516;13.670;2022-12-18T14:48:21;26.23;;;9.68;;
41711;SDS011;27399;51.516;13.670;2022-12-18T14:51:00;29.65;;;10.15;;
41711;SDS011;27399;51.516;13.670;2022-12-18T14:55:59;33.95;;;12.20;;
41711;SDS011;27399;51.516;13.670;2022-12-18T14:58:25;22.30;;;9.63;;
41711;SDS011;27399;51.516;13.670;2022-12-18T15:00:51;27.50;;;9.77;;
41711;SDS011;27399;51.516;13.670;2022-12-18T15:03:20;30.65;;;9.68;;
41711;SDS011;27399;51.516;13.670;2022-12-18T15:05:47;25.55;;;8.95;;
41711;SDS011;27399;51.516;13.670;2022-12-18T15:08:30;23.52;;;9.23;;
41711;SDS011;27399;51.516;13.670;2022-12-18T15:11:00;24.60;;;9.57;;
41711;SDS011;27399;51.516;13.670;2022-12-18T15:13:26;24.40;;;9.32;;
41711;SDS011;27399;51.516;13.670;2022-12-18T15:15:52;29.17;;;10.40;;
41711;SDS011;27399;51.516;13.670;2022-12-18T15:18:29;27.23;;;10.60;;
41711;SDS011;27399;51.516;13.670;2022-12-18T15:21:07;27.42;;;9.85;;
41711;SDS011;27399;51.516;13.670;2022-12-18T15:26:20;20.48;;;8.93;;
41711;SDS011;27399;51.516;13.670;2022-12-18T15:33:43;21.60;;;8.45;;
41711;SDS011;27399;51.516;13.670;2022-12-18T15:36:25;26.00;;;8.48;;
41711;SDS011;27399;51.516;13.670;2022-12-18T15:38:54;25.55;;;8.50;;
41711;SDS011;27399;51.516;13.670;2022-12-18T15:41:21;29.17;;;9.15;;
41711;SDS011;27399;51.516;13.670;2022-12-18T15:43:48;22.67;;;7.78;;
41711;SDS011;27399;51.516;13.670;2022-12-18T15:49:02;27.40;;;9.63;;
41711;SDS011;27399;51.516;13.670;2022-12-18T15:51:34;28.13;;;9.65;;
41711;SDS011;27399;51.516;13.670;2022-12-18T15:54:02;23.17;;;9.18;;
41711;SDS011;27399;51.516;13.670;2022-12-18T15:56:30;23.60;;;8.75;;
41711;SDS011;27399;51.516;13.670;2022-12-18T15:59:16;25.10;;;8.55;;
41711;SDS011;27399;51.516;13.670;2022-12-18T16:01:44;21.08;;;8.90;;
41711;SDS011;27399;51.516;13.670;2022-12-18T16:04:12;21.88;;;8.25;;
41711;SDS011;27399;51.516;13.670;2022-12-18T16:06:39;24.00;;;8.77;;
41711;SDS011;27399;51.516;13.670;2022-12-18T16:09:06;24.83;;;10.23;;
41711;SDS011;27399;51.516;13.670;2022-12-18T16:11:32;30.10;;;8.45;;
41711;SDS011;27399;51.516;13.670;2022-12-18T16:16:42;23.88;;;8.38;;
41711;SDS011;27399;51.516;13.670;2022-12-18T16:19:07;25.05;;;8.75;;
41711;SDS011;27399;51.516;13.670;2022-12-18T16:21:33;24.95;;;8.82;;
41711;SDS011;27399;51.516;13.670;2022-12-18T16:23:59;22.10;;;7.63;;
41711;SDS011;27399;51.516;13.670;2022-12-18T16:26:24;24.65;;;8.70;;
41711;SDS011;27399;51.516;13.670;2022-12-18T16:28:50;21.60;;;8.32;;
41711;SDS011;27399;51.516;13.670;2022-12-18T16:31:15;23.98;;;9.55;;
41711;SDS011;27399;51.516;13.670;2022-12-18T16:33:41;29.15;;;10.40;;
41711;SDS011;27399;51.516;13.670;2022-12-18T16:36:07;27.42;;;8.55;;
41711;SDS011;27399;51.516;13.670;2022-12-18T16:38:33;30.60;;;10.60;;
41711;SDS011;27399;51.516;13.670;2022-12-18T16:40:58;28.00;;;9.40;;